Nearby METAR Reports

 

KSJC - San Jose, California, USA
Distance from station: NØ 14km
Oppdatert: 25/06/2022 23:53
Klart
Klart
 Vind fra N
Vind: N 20 km/h
Temperatur: 28°C
Heat Index: 27°C
Duggpunkt: 13°C
Fuktighet: 40%
Barometer: 1012.5 hPa
Clouds: Klart
Visibility: 16 km
2022/06/25 21:53 KSJC 252153Z 35011KT 10SM CLR 28/13 A2990 RMK AO2 SLP124 T02780128
KNUQ - Moffett Nas/Mtn, California, USA
Distance from station: N 14km
Oppdatert: 25/06/2022 23:55
Klart
Klart
 Vind fra NNV
Vind: NNV 20 km/h
Temperatur: 23°C
Duggpunkt: 14°C
Fuktighet: 57%
Barometer: 1012.9 hPa
Clouds: Klart
Visibility: 14 km
2022/06/25 21:55 KNUQ 252155Z AUTO 34011KT 9SM CLR 23/14 A2991 RMK AO2
 
KPAO - Palo Alto, California, USA
Distance from station: NNV 23km
Oppdatert: 25/06/2022 22:47
NOT Current
Klart
Klart
 Vind fra NNV
Vind: NNV 24 km/h
Temperatur: 23°C
Duggpunkt: 14°C
Fuktighet: 57%
Barometer: 1013.2 hPa
Clouds: Klart
Visibility: 16 km
2022/06/25 20:47 KPAO 252047Z 33013KT 10SM SKC 23/14 A2992
KRHV - San Jose/Reid, California, USA
Distance from station: ØNØ 19km
Oppdatert: 25/06/2022 23:47
Klart
Klart
 Vind fra VNV
Vind: VNV 22 km/h
Temperatur: 31°C
Duggpunkt: 13°C
Fuktighet: 33%
Barometer: 1012.5 hPa
Clouds: Klart
Visibility: 16 km
2022/06/25 21:47 KRHV 252147Z 30012KT 10SM SKC 31/13 A2990
 
KOAK - Oakland, California, USA
Distance from station: NNV 50km
Oppdatert: 25/06/2022 23:53
Klart
Klart
 Vind fra VNV
Vind: VNV 26 km/h
Temperatur: 21°C
Duggpunkt: 12°C
Fuktighet: 57%
Barometer: 1013.5 hPa
Clouds: Klart
Visibility: 16 km
2022/06/25 21:53 KOAK 252153Z 29014KT 10SM CLR 21/12 A2993 RMK AO2 SLP134 T02060122
KSQL - San Carlos Airpo, California, USA
Distance from station: NV 34km
Oppdatert: 25/06/2022 23:57
Klart
Klart
 Vind fra NNV
Vind: NNV 19 km/h
Temperatur: 25°C
Duggpunkt: 12°C
Fuktighet: 44%
Barometer: 1012.9 hPa
Clouds: Klart
Visibility: 16 km
2022/06/25 21:57 KSQL 252157Z 33010KT 10SM CLR 25/12 A2991
 
KSFO - San Francisco, California, USA
Distance from station: NV 49km
Oppdatert: 25/06/2022 23:56
Few Clouds
Few Clouds
 Vind fra VNV
Vind: VNV 37 km/h, Vindkast: 52 km/h
Temperatur: 20°C
Duggpunkt: 11°C
Fuktighet: 56%
Barometer: 1013.2 hPa
Clouds: Few Clouds
Visibility: 16 km
Cloud details: Few Clouds 213 m
2022/06/25 21:56 KSFO 252156Z 30020G28KT 10SM FEW007 20/11 A2992 RMK AO2 PK WND 30028/2117 SLP131 T02000111
KE16 - San Martin, California, USA
Distance from station: ØSØ 43km
Oppdatert: 25/06/2022 23:55
Klart
Klart
 Vind fra SØ
Vind: SØ 22 km/h
Temperatur: 32°C
Duggpunkt: 9°C
Fuktighet: 24%
Barometer: 1012.5 hPa
Clouds: Klart
Visibility: 16 km
2022/06/25 21:55 KE16 252155Z AUTO 14012KT 10SM CLR 32/09 A2990 RMK AO2
 
KWVI - Watsonville, California, USA
Distance from station: SSØ 44km
Oppdatert: 25/06/2022 23:53
Klart
Klart
 Vind fra SV
Vind: SV 15 km/h
Temperatur: 19°C
Duggpunkt: 12°C
Fuktighet: 64%
Barometer: 1014.9 hPa
Clouds: Klart
Visibility: 16 km
2022/06/25 21:53 KWVI 252153Z AUTO 23008KT 10SM CLR 19/12 A2997 RMK AO2 SLP148 T01890117
KHAF - Half Moon Bay, California, USA
Distance from station: VNV 50km
Oppdatert: 25/06/2022 23:55
Mist, Klart
Mist, Klart
 Vind fra varies
Vind: varies 9 km/h, Vindkast: 20 km/h
Temperatur: 15°C
Duggpunkt: 13°C
Fuktighet: 88%
Barometer: 1014.9 hPa
Oversikt: Mist
Clouds: Klart
Visibility: 8 km
2022/06/25 21:55 KHAF 252155Z AUTO VRB05G11KT 5SM BR CLR 15/13 A2997 RMK AO2
 
KHWD - Hayward, California, USA
Distance from station: N 44km
Oppdatert: 25/06/2022 23:54
Klart
Klart
 Vind fra V
Vind: V 28 km/h
Temperatur: 23°C
Duggpunkt: 12°C
Fuktighet: 50%
Barometer: 1012.9 hPa
Clouds: Klart
Visibility: 16 km
2022/06/25 21:54 KHWD 252154Z 28015KT 10SM CLR 23/12 A2991 RMK AO2 SLP138 T02280122
KLVK - Livermore, California, USA
Distance from station: NNØ 51km
Oppdatert: 25/06/2022 23:53
Klart
Klart
 Vind fra VNV
Vind: VNV 24 km/h
Temperatur: 34°C
Duggpunkt: 5°C
Fuktighet: 16%
Barometer: 1011.5 hPa
Clouds: Klart
Visibility: 16 km
2022/06/25 21:53 KLVK 252153Z 29013KT 10SM CLR 34/05 A2987 RMK AO2 SLP111 T03440050